createdAt,value
2018-10-19T00:03:43.649Z,100937.48
2018-10-19T00:08:46.930Z,100934.94
2018-10-19T00:13:50.223Z,100936.52
2018-10-19T00:18:53.501Z,100925.77
2018-10-19T00:23:56.773Z,100928.98
2018-10-19T00:29:00.244Z,100922.66
2018-10-19T00:34:03.569Z,100934.34
2018-10-19T00:39:09.176Z,100933.55
2018-10-19T00:44:12.424Z,100929.41
2018-10-19T00:49:15.706Z,100918.48
2018-10-19T00:54:18.982Z,100920.86
2018-10-19T00:59:22.257Z,100923.30
2018-10-19T01:04:25.525Z,100910.36
2018-10-19T01:09:28.816Z,100913.38
2018-10-19T01:14:32.085Z,100911.75
2018-10-19T01:19:35.365Z,100908.21
2018-10-19T01:24:38.640Z,100914.17
2018-10-19T01:29:41.926Z,100922.27
2018-10-19T01:34:45.241Z,100925.88
2018-10-19T01:39:48.522Z,100918.94
2018-10-19T01:44:51.811Z,100925.90
2018-10-19T01:49:55.092Z,100928.47
2018-10-19T01:54:58.394Z,100921.73
2018-10-19T02:00:01.683Z,100932.84
2018-10-19T02:05:05.724Z,100936.80
2018-10-19T02:10:08.982Z,100938.59
2018-10-19T02:15:12.287Z,100940.22
2018-10-19T02:20:15.570Z,100940.77
2018-10-19T02:25:18.849Z,100944.19
2018-10-19T02:30:22.123Z,100946.58
2018-10-19T02:35:25.392Z,100945.98
2018-10-19T02:40:28.678Z,100945.58
2018-10-19T02:45:34.199Z,100949.94
2018-10-19T02:50:37.484Z,100951.54
2018-10-19T02:55:40.826Z,100956.69
2018-10-19T03:00:44.101Z,100962.66
2018-10-19T03:05:47.376Z,100959.83
2018-10-19T03:10:50.682Z,100959.68
2018-10-19T03:15:53.958Z,100963.44
2018-10-19T03:20:57.293Z,100962.05
2018-10-19T03:26:00.556Z,100967.41
2018-10-19T03:31:04.129Z,100964.25
2018-10-19T03:36:07.384Z,100967.22
2018-10-19T03:41:10.750Z,100964.23
2018-10-19T03:46:13.990Z,100960.47
2018-10-19T03:51:17.348Z,100954.27
2018-10-19T03:56:20.573Z,100962.01
2018-10-19T04:01:23.854Z,100958.08
2018-10-19T04:06:27.223Z,100958.63
2018-10-19T04:11:30.496Z,100966.61
2018-10-19T04:16:33.775Z,100965.63
2018-10-19T04:21:37.098Z,100969.74
2018-10-19T04:26:40.385Z,100973.95
2018-10-19T04:31:43.677Z,100972.56
2018-10-19T04:36:46.972Z,100971.58
2018-10-19T04:41:50.436Z,100969.20
2018-10-19T04:46:53.633Z,100971.39
2018-10-19T04:51:57.036Z,100971.19
2018-10-19T04:57:00.352Z,100973.16
2018-10-19T05:02:03.623Z,100981.89
2018-10-19T05:07:06.923Z,100986.87
2018-10-19T05:12:10.210Z,100989.24
2018-10-19T05:17:13.596Z,100993.05
2018-10-19T05:22:16.806Z,101000.34
2018-10-19T05:27:20.113Z,100998.97
2018-10-19T05:32:23.391Z,100992.48
2018-10-19T05:37:26.671Z,101013.25
2018-10-19T05:42:30.178Z,101006.31
2018-10-19T05:47:33.474Z,101007.73
2018-10-19T05:52:37.210Z,101013.89
2018-10-19T05:57:40.490Z,101020.44
2018-10-19T06:02:43.900Z,101026.59
2018-10-19T06:07:47.137Z,101039.29
2018-10-19T06:12:50.414Z,101037.34
2018-10-19T06:17:53.704Z,101040.92
2018-10-19T06:22:57.011Z,101049.25
2018-10-19T06:28:00.313Z,101059.16
2018-10-19T06:33:03.585Z,101050.84
2018-10-19T06:38:07.263Z,101058.38
2018-10-19T06:43:10.511Z,101060.39
2018-10-19T06:48:13.790Z,101072.66
2018-10-19T06:53:17.069Z,101067.34
2018-10-19T06:58:20.341Z,101067.50
2018-10-19T07:03:23.619Z,101068.90
2018-10-19T07:08:26.946Z,101069.50
2018-10-19T07:13:30.206Z,101069.09
2018-10-19T07:18:33.473Z,101079.44
2018-10-19T07:23:36.758Z,101088.61
2018-10-19T07:28:40.054Z,101089.20
2018-10-19T07:33:43.334Z,101092.39
2018-10-19T07:38:46.617Z,101093.73
2018-10-19T07:43:49.890Z,101093.14
2018-10-19T07:48:53.180Z,101102.79
2018-10-19T07:53:56.495Z,101094.66
2018-10-19T07:58:59.805Z,101108.27
2018-10-19T08:04:03.185Z,101099.91
2018-10-19T08:09:08.958Z,101115.14
2018-10-19T08:14:12.315Z,101111.37
2018-10-19T08:19:15.557Z,101118.92
2018-10-19T08:24:18.828Z,101120.49
2018-10-19T08:29:22.106Z,101125.44
2018-10-19T08:34:25.392Z,101126.63
2018-10-19T08:39:28.715Z,101130.39
2018-10-19T08:44:32.128Z,101133.34
2018-10-19T08:49:35.590Z,101139.09
2018-10-19T08:54:38.884Z,101138.34
2018-10-19T08:59:42.187Z,101139.50
2018-10-19T09:04:45.562Z,101148.82
2018-10-19T09:09:48.856Z,101139.30
2018-10-19T09:14:57.996Z,101147.00
2018-10-19T09:20:01.293Z,101149.60
2018-10-19T09:25:04.804Z,101144.84
2018-10-19T09:30:08.351Z,101144.45
2018-10-19T09:35:12.160Z,101148.20
2018-10-19T09:40:15.524Z,101143.42
2018-10-19T09:45:18.990Z,101150.36
2018-10-19T09:50:22.578Z,101147.97
2018-10-19T09:55:26.293Z,101152.30
2018-10-19T10:00:34.982Z,101149.13
2018-10-19T10:05:38.354Z,101139.02
2018-10-19T10:10:41.638Z,101134.03
2018-10-19T10:15:44.972Z,101143.55
2018-10-19T10:20:48.217Z,101143.55
2018-10-19T10:25:51.550Z,101147.49
2018-10-19T10:30:54.876Z,101140.55
2018-10-19T10:35:58.253Z,101145.52
2018-10-19T10:41:01.806Z,101140.36
2018-10-19T10:46:05.299Z,101141.91
2018-10-19T10:51:08.597Z,101142.91
2018-10-19T10:56:11.893Z,101131.41
2018-10-19T11:01:15.597Z,101126.61
2018-10-19T11:06:18.873Z,101126.61
2018-10-19T11:11:22.146Z,101131.37
2018-10-19T11:16:25.420Z,101123.63
2018-10-19T11:21:28.693Z,101118.08
2018-10-19T11:26:32.053Z,101107.97
2018-10-19T11:31:35.572Z,101114.31
2018-10-19T11:36:38.862Z,101118.67
2018-10-19T11:41:42.174Z,101111.92
2018-10-19T11:46:45.478Z,101108.16
2018-10-19T11:51:49.177Z,101102.97
2018-10-19T11:56:52.545Z,101101.78
2018-10-19T12:01:55.838Z,101099.39
2018-10-19T12:06:59.287Z,101102.56
2018-10-19T12:12:03.306Z,101094.03
2018-10-19T12:17:06.619Z,101089.47
2018-10-19T12:22:09.903Z,101093.24
2018-10-19T12:27:13.310Z,101087.05
2018-10-19T12:32:16.774Z,101091.02
2018-10-19T12:37:20.063Z,101087.65
2018-10-19T12:42:23.366Z,101085.27
2018-10-19T12:47:37.374Z,101081.09
2018-10-19T12:52:40.761Z,101075.16
2018-10-19T12:57:44.129Z,101068.04
2018-10-19T13:02:47.454Z,101058.48
2018-10-19T13:07:50.795Z,101052.97
2018-10-19T13:12:54.100Z,101051.73
2018-10-19T13:17:57.481Z,101047.77
2018-10-19T13:23:00.790Z,101051.38
2018-10-19T13:28:04.368Z,101059.52
2018-10-19T13:33:07.815Z,101054.52
2018-10-19T13:38:11.169Z,101054.52
2018-10-19T13:43:14.448Z,101053.31
2018-10-19T13:48:18.054Z,101044.20
2018-10-19T13:53:21.783Z,101040.22
2018-10-19T13:58:25.756Z,101035.22
2018-10-19T14:03:29.216Z,101036.94
2018-10-19T14:08:32.492Z,101035.56
2018-10-19T14:13:35.861Z,101032.97
2018-10-19T14:18:39.161Z,101022.41
2018-10-19T14:23:42.477Z,101023.66
2018-10-19T14:28:45.758Z,101021.27
2018-10-19T14:33:49.054Z,101023.66
2018-10-19T14:38:52.366Z,101026.04
2018-10-19T14:43:55.720Z,101020.08
2018-10-19T14:48:59.444Z,101022.41
2018-10-19T14:54:02.695Z,101027.97
2018-10-19T14:59:06.575Z,101025.63
2018-10-19T15:04:09.834Z,101026.22
2018-10-19T15:09:13.323Z,101013.72
2018-10-19T15:14:16.556Z,101011.69
2018-10-19T15:19:19.930Z,101012.49
2018-10-19T15:24:23.210Z,101016.50
2018-10-19T15:29:26.571Z,101020.66
2018-10-19T15:34:30.137Z,101023.06
2018-10-19T15:39:33.416Z,101024.63
2018-10-19T15:44:36.783Z,101022.27
2018-10-19T15:49:40.070Z,101025.63
2018-10-19T15:54:43.405Z,101021.86
2018-10-19T15:59:46.981Z,101032.78
2018-10-19T16:04:50.696Z,101034.95
2018-10-19T16:09:54.158Z,101033.97
2018-10-19T16:14:57.479Z,101030.59
2018-10-19T16:20:01.491Z,101032.38
2018-10-19T16:25:06.866Z,101042.30
2018-10-19T16:30:11.256Z,101046.07
2018-10-19T16:35:14.959Z,101038.14
2018-10-19T16:40:18.300Z,101036.36
2018-10-19T16:45:21.609Z,101038.79
2018-10-19T16:50:24.888Z,101042.52
2018-10-19T16:55:28.170Z,101037.39
2018-10-19T17:00:31.509Z,101046.92
2018-10-19T17:05:34.889Z,101041.91
2018-10-19T17:10:38.251Z,101041.91
2018-10-19T17:15:41.524Z,101055.20
2018-10-19T17:20:44.818Z,101056.39
2018-10-19T17:25:48.229Z,101057.37
2018-10-19T17:30:52.042Z,101061.75
2018-10-19T17:35:55.479Z,101058.77
2018-10-19T17:40:58.778Z,101059.12
2018-10-19T17:46:02.129Z,101058.17
2018-10-19T17:51:05.483Z,101066.27
2018-10-19T17:56:08.864Z,101072.02
2018-10-19T18:01:12.174Z,101076.58
2018-10-19T18:06:15.563Z,101075.58
2018-10-19T18:11:18.869Z,101082.73
2018-10-19T18:16:23.003Z,101098.77
2018-10-19T18:21:26.521Z,101093.20
2018-10-19T18:26:29.874Z,101099.95
2018-10-19T18:31:33.342Z,101102.52
2018-10-19T18:36:36.922Z,101114.20
2018-10-19T18:41:40.403Z,101114.99
2018-10-19T18:46:43.657Z,101118.95
2018-10-19T18:51:47.017Z,101131.23
2018-10-19T18:56:50.352Z,101127.48
2018-10-19T19:01:53.701Z,101127.84
2018-10-19T19:06:57.170Z,101136.78
2018-10-19T19:12:00.485Z,101131.42
2018-10-19T19:17:03.846Z,101139.75
2018-10-19T19:22:07.377Z,101144.11
2018-10-19T19:27:10.877Z,101144.76
2018-10-19T19:32:14.275Z,101144.95
2018-10-19T19:37:17.578Z,101145.76
2018-10-19T19:42:26.377Z,101146.56
2018-10-19T19:47:40.749Z,101152.52
2018-10-19T19:52:44.066Z,101155.48
2018-10-19T19:57:47.361Z,101151.72
2018-10-19T20:02:51.225Z,101154.55
2018-10-19T20:07:54.531Z,101164.67
2018-10-19T20:12:57.862Z,101171.41
2018-10-19T20:18:02.022Z,101165.09
2018-10-19T20:23:06.473Z,101165.30
2018-10-19T20:28:09.799Z,101171.84
2018-10-19T20:33:13.121Z,101169.30
2018-10-19T20:38:16.485Z,101171.84
2018-10-19T20:43:20.147Z,101170.27
2018-10-19T20:48:23.458Z,101169.67
2018-10-19T20:53:26.855Z,101168.71
2018-10-19T20:58:30.240Z,101164.91
2018-10-19T21:03:33.537Z,101166.13
2018-10-19T21:08:37.011Z,101165.34
2018-10-19T21:13:40.306Z,101160.58
2018-10-19T21:18:43.592Z,101156.41
2018-10-19T21:23:46.878Z,101164.15
2018-10-19T21:28:50.479Z,101160.77
2018-10-19T21:33:53.897Z,101159.98
2018-10-19T21:38:57.446Z,101157.20
2018-10-19T21:44:00.909Z,101160.38
2018-10-19T21:49:04.201Z,101155.22
2018-10-19T21:54:07.645Z,101155.06
2018-10-19T21:59:11.760Z,101148.28
2018-10-19T22:04:15.128Z,101155.27
2018-10-19T22:09:18.578Z,101156.84
2018-10-19T22:14:21.864Z,101163.59
2018-10-19T22:19:25.146Z,101159.00
2018-10-19T22:24:28.529Z,101165.55
2018-10-19T22:29:31.825Z,101169.52
2018-10-19T22:34:35.185Z,101162.57
2018-10-19T22:39:38.510Z,101160.02
2018-10-19T22:44:41.988Z,101173.24
2018-10-19T22:49:45.307Z,101169.27
2018-10-19T22:54:48.644Z,101169.55
2018-10-19T22:59:52.017Z,101158.83
2018-10-19T23:04:55.362Z,101158.64
2018-10-19T23:09:58.671Z,101164.20
2018-10-19T23:15:02.468Z,101164.98
2018-10-19T23:20:07.851Z,101171.14
2018-10-19T23:25:11.213Z,101169.39
2018-10-19T23:30:14.584Z,101170.38
2018-10-19T23:35:18.831Z,101167.60
2018-10-19T23:40:22.121Z,101166.41
2018-10-19T23:45:25.411Z,101172.77
2018-10-19T23:50:28.966Z,101181.48
2018-10-19T23:55:32.348Z,101177.72
